<?xml version="1.0" encoding="UTF-8" standalone="no" ?>
<gpx xmlns="http://www.topografix.com/GPX/1/1" xmlns:xsi="http://www.w3.org/2001/XMLSchema-instance" xsi:schemaLocation="http://www.topografix.com/GPX/1/1 http://www.topografix.com/GPX/1/1/gpx.xsd" version="1.1" creator="VisuGPX - https://www.visugpx.com">
  <metadata>
    <name>Riervescemont</name>
    <desc><![CDATA[Très varié, très sympa]]></desc>
  </metadata>
  <trk>
    <name><![CDATA[Riervescemont]]></name>
    <extensions>
      <line xmlns="http://www.topografix.com/GPX/gpx_style/0/2">
        <color>FF00FF</color>
        <width>4</width>
      </line>
    </extensions>
    <trkseg>
      <trkpt lat="47.76811" lon="6.89365">
        <ele>671</ele>
        <time>2019-12-28T18:11:55Z</time>
      </trkpt>
      <trkpt lat="47.76833" lon="6.894">
        <ele>677</ele>
        <time>2019-12-28T18:12:21Z</time>
      </trkpt>
      <trkpt lat="47.76855" lon="6.89407">
        <ele>683</ele>
        <time>2019-12-28T18:12:39Z</time>
      </trkpt>
      <trkpt lat="47.76859" lon="6.89413">
        <ele>685</ele>
        <time>2019-12-28T18:12:43Z</time>
      </trkpt>
      <trkpt lat="47.76856" lon="6.89427">
        <ele>687</ele>
        <time>2019-12-28T18:12:51Z</time>
      </trkpt>
      <trkpt lat="47.76854" lon="6.89427">
        <ele>686</ele>
        <time>2019-12-28T18:12:53Z</time>
      </trkpt>
      <trkpt lat="47.7685" lon="6.89434">
        <ele>687</ele>
        <time>2019-12-28T18:12:58Z</time>
      </trkpt>
      <trkpt lat="47.76834" lon="6.89472">
        <ele>689</ele>
        <time>2019-12-28T18:13:26Z</time>
      </trkpt>
      <trkpt lat="47.76826" lon="6.89517">
        <ele>694</ele>
        <time>2019-12-28T18:13:28Z</time>
      </trkpt>
      <trkpt lat="47.7685" lon="6.89492">
        <ele>699</ele>
        <time>2019-12-28T18:13:31Z</time>
      </trkpt>
      <trkpt lat="47.76858" lon="6.89487">
        <ele>701</ele>
        <time>2019-12-28T18:13:38Z</time>
      </trkpt>
      <trkpt lat="47.76885" lon="6.89477">
        <ele>708</ele>
        <time>2019-12-28T18:14:06Z</time>
      </trkpt>
      <trkpt lat="47.76891" lon="6.8947">
        <ele>709</ele>
        <time>2019-12-28T18:14:25Z</time>
      </trkpt>
      <trkpt lat="47.76896" lon="6.89465">
        <ele>709</ele>
        <time>2019-12-28T18:14:41Z</time>
      </trkpt>
      <trkpt lat="47.76896" lon="6.89462">
        <ele>708</ele>
        <time>2019-12-28T18:14:42Z</time>
      </trkpt>
      <trkpt lat="47.76903" lon="6.89455">
        <ele>708</ele>
        <time>2019-12-28T18:14:49Z</time>
      </trkpt>
      <trkpt lat="47.76926" lon="6.89465">
        <ele>718</ele>
        <time>2019-12-28T18:15:08Z</time>
      </trkpt>
      <trkpt lat="47.76943" lon="6.89462">
        <ele>720</ele>
        <time>2019-12-28T18:15:22Z</time>
      </trkpt>
      <trkpt lat="47.76962" lon="6.89456">
        <ele>722</ele>
        <time>2019-12-28T18:15:37Z</time>
      </trkpt>
      <trkpt lat="47.76978" lon="6.89457">
        <ele>725</ele>
        <time>2019-12-28T18:15:46Z</time>
      </trkpt>
      <trkpt lat="47.77" lon="6.89454">
        <ele>728</ele>
        <time>2019-12-28T18:16:18Z</time>
      </trkpt>
      <trkpt lat="47.77008" lon="6.89451">
        <ele>728</ele>
        <time>2019-12-28T18:16:23Z</time>
      </trkpt>
      <trkpt lat="47.77016" lon="6.89443">
        <ele>726</ele>
        <time>2019-12-28T18:16:41Z</time>
      </trkpt>
      <trkpt lat="47.77049" lon="6.89436">
        <ele>727</ele>
        <time>2019-12-28T18:16:51Z</time>
      </trkpt>
      <trkpt lat="47.77048" lon="6.89465">
        <ele>737</ele>
        <time>2019-12-28T18:16:56Z</time>
      </trkpt>
      <trkpt lat="47.76987" lon="6.89495">
        <ele>739</ele>
        <time>2019-12-28T18:17:24Z</time>
      </trkpt>
      <trkpt lat="47.76955" lon="6.89534">
        <ele>741</ele>
        <time>2019-12-28T18:18:04Z</time>
      </trkpt>
      <trkpt lat="47.76952" lon="6.89555">
        <ele>745</ele>
        <time>2019-12-28T18:18:10Z</time>
      </trkpt>
      <trkpt lat="47.7696" lon="6.89559">
        <ele>749</ele>
        <time>2019-12-28T18:18:17Z</time>
      </trkpt>
      <trkpt lat="47.77009" lon="6.89539">
        <ele>756</ele>
        <time>2019-12-28T18:18:58Z</time>
      </trkpt>
      <trkpt lat="47.7705" lon="6.89541">
        <ele>764</ele>
        <time>2019-12-28T18:19:30Z</time>
      </trkpt>
      <trkpt lat="47.77064" lon="6.89546">
        <ele>767</ele>
        <time>2019-12-28T18:19:42Z</time>
      </trkpt>
      <trkpt lat="47.77078" lon="6.89547">
        <ele>769</ele>
        <time>2019-12-28T18:19:53Z</time>
      </trkpt>
      <trkpt lat="47.7711" lon="6.89562">
        <ele>776</ele>
        <time>2019-12-28T18:20:20Z</time>
      </trkpt>
      <trkpt lat="47.77146" lon="6.89569">
        <ele>778</ele>
        <time>2019-12-28T18:20:49Z</time>
      </trkpt>
      <trkpt lat="47.77177" lon="6.89572">
        <ele>778</ele>
        <time>2019-12-28T18:21:14Z</time>
      </trkpt>
      <trkpt lat="47.77185" lon="6.89575">
        <ele>779</ele>
        <time>2019-12-28T18:21:21Z</time>
      </trkpt>
      <trkpt lat="47.77207" lon="6.89597">
        <ele>786</ele>
        <time>2019-12-28T18:21:24Z</time>
      </trkpt>
      <trkpt lat="47.7716" lon="6.89606">
        <ele>793</ele>
        <time>2019-12-28T18:21:48Z</time>
      </trkpt>
      <trkpt lat="47.77129" lon="6.89605">
        <ele>793</ele>
        <time>2019-12-28T18:22:09Z</time>
      </trkpt>
      <trkpt lat="47.77108" lon="6.8961">
        <ele>794</ele>
        <time>2019-12-28T18:22:25Z</time>
      </trkpt>
      <trkpt lat="47.77092" lon="6.89613">
        <ele>794</ele>
        <time>2019-12-28T18:22:41Z</time>
      </trkpt>
      <trkpt lat="47.7708" lon="6.89629">
        <ele>797</ele>
        <time>2019-12-28T18:22:51Z</time>
      </trkpt>
      <trkpt lat="47.77061" lon="6.89646">
        <ele>797</ele>
        <time>2019-12-28T18:23:14Z</time>
      </trkpt>
      <trkpt lat="47.77054" lon="6.89666">
        <ele>798</ele>
        <time>2019-12-28T18:23:26Z</time>
      </trkpt>
      <trkpt lat="47.77053" lon="6.89683">
        <ele>801</ele>
        <time>2019-12-28T18:23:35Z</time>
      </trkpt>
      <trkpt lat="47.77053" lon="6.89721">
        <ele>804</ele>
        <time>2019-12-28T18:23:56Z</time>
      </trkpt>
      <trkpt lat="47.77055" lon="6.8973">
        <ele>805</ele>
        <time>2019-12-28T18:24:01Z</time>
      </trkpt>
      <trkpt lat="47.77065" lon="6.89766">
        <ele>811</ele>
        <time>2019-12-28T18:24:22Z</time>
      </trkpt>
      <trkpt lat="47.77081" lon="6.89804">
        <ele>815</ele>
        <time>2019-12-28T18:24:46Z</time>
      </trkpt>
      <trkpt lat="47.77098" lon="6.89857">
        <ele>818</ele>
        <time>2019-12-28T18:25:17Z</time>
      </trkpt>
      <trkpt lat="47.77141" lon="6.89946">
        <ele>822</ele>
        <time>2019-12-28T18:26:16Z</time>
      </trkpt>
      <trkpt lat="47.77182" lon="6.89978">
        <ele>833</ele>
        <time>2019-12-28T18:26:50Z</time>
      </trkpt>
      <trkpt lat="47.77197" lon="6.8999">
        <ele>838</ele>
        <time>2019-12-28T18:27:02Z</time>
      </trkpt>
      <trkpt lat="47.77204" lon="6.89978">
        <ele>840</ele>
        <time>2019-12-28T18:27:16Z</time>
      </trkpt>
      <trkpt lat="47.77193" lon="6.89957">
        <ele>840</ele>
        <time>2019-12-28T18:27:26Z</time>
      </trkpt>
      <trkpt lat="47.77188" lon="6.8991">
        <ele>845</ele>
        <time>2019-12-28T18:27:39Z</time>
      </trkpt>
      <trkpt lat="47.77203" lon="6.89906">
        <ele>851</ele>
        <time>2019-12-28T18:27:45Z</time>
      </trkpt>
      <trkpt lat="47.77217" lon="6.89924">
        <ele>853</ele>
        <time>2019-12-28T18:27:57Z</time>
      </trkpt>
      <trkpt lat="47.77232" lon="6.89937">
        <ele>856</ele>
        <time>2019-12-28T18:28:27Z</time>
      </trkpt>
      <trkpt lat="47.7724" lon="6.89947">
        <ele>857</ele>
        <time>2019-12-28T18:28:37Z</time>
      </trkpt>
      <trkpt lat="47.77251" lon="6.89979">
        <ele>856</ele>
        <time>2019-12-28T18:28:56Z</time>
      </trkpt>
      <trkpt lat="47.77255" lon="6.89954">
        <ele>862</ele>
        <time>2019-12-28T18:29:08Z</time>
      </trkpt>
      <trkpt lat="47.77238" lon="6.89906">
        <ele>863</ele>
        <time>2019-12-28T18:29:20Z</time>
      </trkpt>
      <trkpt lat="47.77226" lon="6.89892">
        <ele>860</ele>
        <time>2019-12-28T18:29:24Z</time>
      </trkpt>
      <trkpt lat="47.77221" lon="6.89876">
        <ele>860</ele>
        <time>2019-12-28T18:29:40Z</time>
      </trkpt>
      <trkpt lat="47.77214" lon="6.89866">
        <ele>860</ele>
        <time>2019-12-28T18:29:45Z</time>
      </trkpt>
      <trkpt lat="47.77211" lon="6.89862">
        <ele>859</ele>
        <time>2019-12-28T18:29:50Z</time>
      </trkpt>
      <trkpt lat="47.77211" lon="6.8985">
        <ele>861</ele>
        <time>2019-12-28T18:29:52Z</time>
      </trkpt>
      <trkpt lat="47.77217" lon="6.89843">
        <ele>862</ele>
        <time>2019-12-28T18:29:55Z</time>
      </trkpt>
      <trkpt lat="47.7723" lon="6.8985">
        <ele>864</ele>
        <time>2019-12-28T18:30:10Z</time>
      </trkpt>
      <trkpt lat="47.77257" lon="6.89852">
        <ele>866</ele>
        <time>2019-12-28T18:30:32Z</time>
      </trkpt>
      <trkpt lat="47.77269" lon="6.89863">
        <ele>868</ele>
        <time>2019-12-28T18:30:43Z</time>
      </trkpt>
      <trkpt lat="47.77288" lon="6.89865">
        <ele>869</ele>
        <time>2019-12-28T18:30:58Z</time>
      </trkpt>
      <trkpt lat="47.77312" lon="6.89863">
        <ele>869</ele>
        <time>2019-12-28T18:31:17Z</time>
      </trkpt>
      <trkpt lat="47.7735" lon="6.89871">
        <ele>872</ele>
        <time>2019-12-28T18:31:48Z</time>
      </trkpt>
      <trkpt lat="47.77365" lon="6.89867">
        <ele>873</ele>
        <time>2019-12-28T18:32:00Z</time>
      </trkpt>
      <trkpt lat="47.77382" lon="6.89846">
        <ele>872</ele>
        <time>2019-12-28T18:32:18Z</time>
      </trkpt>
      <trkpt lat="47.77396" lon="6.89809">
        <ele>870</ele>
        <time>2019-12-28T18:32:41Z</time>
      </trkpt>
      <trkpt lat="47.77401" lon="6.89784">
        <ele>870</ele>
        <time>2019-12-28T18:32:55Z</time>
      </trkpt>
      <trkpt lat="47.77421" lon="6.89723">
        <ele>878</ele>
        <time>2019-12-28T18:33:31Z</time>
      </trkpt>
      <trkpt lat="47.7743" lon="6.89678">
        <ele>877</ele>
        <time>2019-12-28T18:33:57Z</time>
      </trkpt>
      <trkpt lat="47.77447" lon="6.89643">
        <ele>882</ele>
        <time>2019-12-28T18:34:20Z</time>
      </trkpt>
      <trkpt lat="47.77449" lon="6.89614">
        <ele>885</ele>
        <time>2019-12-28T18:34:36Z</time>
      </trkpt>
      <trkpt lat="47.77456" lon="6.89572">
        <ele>886</ele>
        <time>2019-12-28T18:34:59Z</time>
      </trkpt>
      <trkpt lat="47.77462" lon="6.8955">
        <ele>887</ele>
        <time>2019-12-28T18:35:12Z</time>
      </trkpt>
      <trkpt lat="47.77464" lon="6.89529">
        <ele>886</ele>
        <time>2019-12-28T18:35:23Z</time>
      </trkpt>
      <trkpt lat="47.77471" lon="6.89505">
        <ele>887</ele>
        <time>2019-12-28T18:35:37Z</time>
      </trkpt>
      <trkpt lat="47.77489" lon="6.8946">
        <ele>892</ele>
        <time>2019-12-28T18:36:05Z</time>
      </trkpt>
      <trkpt lat="47.77501" lon="6.89437">
        <ele>894</ele>
        <time>2019-12-28T18:36:21Z</time>
      </trkpt>
      <trkpt lat="47.7751" lon="6.89425">
        <ele>896</ele>
        <time>2019-12-28T18:36:31Z</time>
      </trkpt>
      <trkpt lat="47.77527" lon="6.89386">
        <ele>899</ele>
        <time>2019-12-28T18:36:56Z</time>
      </trkpt>
      <trkpt lat="47.77544" lon="6.89367">
        <ele>904</ele>
        <time>2019-12-28T18:37:17Z</time>
      </trkpt>
      <trkpt lat="47.77555" lon="6.89335">
        <ele>906</ele>
        <time>2019-12-28T18:37:37Z</time>
      </trkpt>
      <trkpt lat="47.77552" lon="6.89322">
        <ele>908</ele>
        <time>2019-12-28T18:37:44Z</time>
      </trkpt>
      <trkpt lat="47.7754" lon="6.89313">
        <ele>906</ele>
        <time>2019-12-28T18:37:55Z</time>
      </trkpt>
      <trkpt lat="47.77532" lon="6.89298">
        <ele>906</ele>
        <time>2019-12-28T18:38:05Z</time>
      </trkpt>
      <trkpt lat="47.77537" lon="6.89289">
        <ele>910</ele>
        <time>2019-12-28T18:38:09Z</time>
      </trkpt>
      <trkpt lat="47.77542" lon="6.89281">
        <ele>913</ele>
        <time>2019-12-28T18:38:19Z</time>
      </trkpt>
      <trkpt lat="47.77547" lon="6.89274">
        <ele>915</ele>
        <time>2019-12-28T18:38:25Z</time>
      </trkpt>
      <trkpt lat="47.77556" lon="6.89271">
        <ele>918</ele>
        <time>2019-12-28T18:38:32Z</time>
      </trkpt>
      <trkpt lat="47.77562" lon="6.89272">
        <ele>920</ele>
        <time>2019-12-28T18:38:37Z</time>
      </trkpt>
      <trkpt lat="47.77569" lon="6.89278">
        <ele>921</ele>
        <time>2019-12-28T18:38:43Z</time>
      </trkpt>
      <trkpt lat="47.77573" lon="6.89278">
        <ele>923</ele>
        <time>2019-12-28T18:38:47Z</time>
      </trkpt>
      <trkpt lat="47.77585" lon="6.89293">
        <ele>924</ele>
        <time>2019-12-28T18:38:59Z</time>
      </trkpt>
      <trkpt lat="47.77595" lon="6.89324">
        <ele>922</ele>
        <time>2019-12-28T18:39:18Z</time>
      </trkpt>
      <trkpt lat="47.77605" lon="6.89337">
        <ele>925</ele>
        <time>2019-12-28T18:39:28Z</time>
      </trkpt>
      <trkpt lat="47.77617" lon="6.89371">
        <ele>932</ele>
        <time>2019-12-28T18:39:49Z</time>
      </trkpt>
      <trkpt lat="47.77621" lon="6.89393">
        <ele>935</ele>
        <time>2019-12-28T18:40:01Z</time>
      </trkpt>
      <trkpt lat="47.77626" lon="6.89393">
        <ele>937</ele>
        <time>2019-12-28T18:40:05Z</time>
      </trkpt>
      <trkpt lat="47.77631" lon="6.89402">
        <ele>939</ele>
        <time>2019-12-28T18:40:12Z</time>
      </trkpt>
      <trkpt lat="47.77665" lon="6.89422">
        <ele>954</ele>
        <time>2019-12-28T18:40:41Z</time>
      </trkpt>
      <trkpt lat="47.77683" lon="6.89439">
        <ele>963</ele>
        <time>2019-12-28T18:40:58Z</time>
      </trkpt>
      <trkpt lat="47.777" lon="6.89459">
        <ele>968</ele>
        <time>2019-12-28T18:41:15Z</time>
      </trkpt>
      <trkpt lat="47.77708" lon="6.89476">
        <ele>971</ele>
        <time>2019-12-28T18:41:26Z</time>
      </trkpt>
      <trkpt lat="47.77728" lon="6.89475">
        <ele>976</ele>
        <time>2019-12-28T18:41:42Z</time>
      </trkpt>
      <trkpt lat="47.77725" lon="6.89519">
        <ele>978</ele>
        <time>2019-12-28T18:43:43Z</time>
      </trkpt>
      <trkpt lat="47.77717" lon="6.89583">
        <ele>983</ele>
        <time>2019-12-28T18:44:18Z</time>
      </trkpt>
      <trkpt lat="47.77712" lon="6.89605">
        <ele>984</ele>
        <time>2019-12-28T18:44:31Z</time>
      </trkpt>
      <trkpt lat="47.77712" lon="6.89628">
        <ele>985</ele>
        <time>2019-12-28T18:44:43Z</time>
      </trkpt>
      <trkpt lat="47.77704" lon="6.89658">
        <ele>987</ele>
        <time>2019-12-28T18:45:00Z</time>
      </trkpt>
      <trkpt lat="47.77709" lon="6.89735">
        <ele>991</ele>
        <time>2019-12-28T18:45:53Z</time>
      </trkpt>
      <trkpt lat="47.77717" lon="6.89773">
        <ele>996</ele>
        <time>2019-12-28T18:46:14Z</time>
      </trkpt>
      <trkpt lat="47.77754" lon="6.8983">
        <ele>997</ele>
        <time>2019-12-28T18:46:58Z</time>
      </trkpt>
      <trkpt lat="47.7777" lon="6.89872">
        <ele>997</ele>
        <time>2019-12-28T18:47:12Z</time>
      </trkpt>
      <trkpt lat="47.77776" lon="6.89896">
        <ele>997</ele>
        <time>2019-12-28T18:47:24Z</time>
      </trkpt>
      <trkpt lat="47.7778" lon="6.89942">
        <ele>994</ele>
        <time>2019-12-28T18:47:56Z</time>
      </trkpt>
      <trkpt lat="47.77789" lon="6.90034">
        <ele>994</ele>
        <time>2019-12-28T18:48:46Z</time>
      </trkpt>
      <trkpt lat="47.778" lon="6.90064">
        <ele>989</ele>
        <time>2019-12-28T18:49:04Z</time>
      </trkpt>
      <trkpt lat="47.77808" lon="6.9011">
        <ele>986</ele>
        <time>2019-12-28T18:49:30Z</time>
      </trkpt>
      <trkpt lat="47.77809" lon="6.90162">
        <ele>989</ele>
        <time>2019-12-28T18:49:58Z</time>
      </trkpt>
      <trkpt lat="47.77829" lon="6.90226">
        <ele>981</ele>
        <time>2019-12-28T18:50:36Z</time>
      </trkpt>
      <trkpt lat="47.77832" lon="6.90252">
        <ele>981</ele>
        <time>2019-12-28T18:50:50Z</time>
      </trkpt>
      <trkpt lat="47.7784" lon="6.90273">
        <ele>978</ele>
        <time>2019-12-28T18:51:03Z</time>
      </trkpt>
      <trkpt lat="47.77851" lon="6.90315">
        <ele>977</ele>
        <time>2019-12-28T18:51:27Z</time>
      </trkpt>
      <trkpt lat="47.77866" lon="6.90353">
        <ele>973</ele>
        <time>2019-12-28T18:51:51Z</time>
      </trkpt>
      <trkpt lat="47.77872" lon="6.90375">
        <ele>973</ele>
        <time>2019-12-28T18:52:03Z</time>
      </trkpt>
      <trkpt lat="47.77889" lon="6.90413">
        <ele>969</ele>
        <time>2019-12-28T18:52:28Z</time>
      </trkpt>
      <trkpt lat="47.77903" lon="6.90464">
        <ele>967</ele>
        <time>2019-12-28T18:52:58Z</time>
      </trkpt>
      <trkpt lat="47.77909" lon="6.90477">
        <ele>964</ele>
        <time>2019-12-28T18:53:06Z</time>
      </trkpt>
      <trkpt lat="47.7792" lon="6.90551">
        <ele>966</ele>
        <time>2019-12-28T18:53:47Z</time>
      </trkpt>
      <trkpt lat="47.77929" lon="6.90579">
        <ele>964</ele>
        <time>2019-12-28T18:54:04Z</time>
      </trkpt>
      <trkpt lat="47.77943" lon="6.90633">
        <ele>964</ele>
        <time>2019-12-28T18:54:39Z</time>
      </trkpt>
      <trkpt lat="47.77944" lon="6.90677">
        <ele>968</ele>
        <time>2019-12-28T18:55:03Z</time>
      </trkpt>
      <trkpt lat="47.77958" lon="6.90711">
        <ele>965</ele>
        <time>2019-12-28T18:55:24Z</time>
      </trkpt>
      <trkpt lat="47.77972" lon="6.90729">
        <ele>961</ele>
        <time>2019-12-28T18:55:39Z</time>
      </trkpt>
      <trkpt lat="47.77981" lon="6.90754">
        <ele>959</ele>
        <time>2019-12-28T18:55:54Z</time>
      </trkpt>
      <trkpt lat="47.77998" lon="6.90828">
        <ele>957</ele>
        <time>2019-12-28T18:56:36Z</time>
      </trkpt>
      <trkpt lat="47.78007" lon="6.90856">
        <ele>955</ele>
        <time>2019-12-28T18:56:53Z</time>
      </trkpt>
      <trkpt lat="47.78012" lon="6.90864">
        <ele>953</ele>
        <time>2019-12-28T18:56:59Z</time>
      </trkpt>
      <trkpt lat="47.78029" lon="6.90931">
        <ele>949</ele>
        <time>2019-12-28T18:57:37Z</time>
      </trkpt>
      <trkpt lat="47.78036" lon="6.90942">
        <ele>948</ele>
        <time>2019-12-28T18:57:46Z</time>
      </trkpt>
      <trkpt lat="47.78046" lon="6.90944">
        <ele>947</ele>
        <time>2019-12-28T18:57:54Z</time>
      </trkpt>
      <trkpt lat="47.78075" lon="6.90931">
        <ele>943</ele>
        <time>2019-12-28T18:58:18Z</time>
      </trkpt>
      <trkpt lat="47.78079" lon="6.90925">
        <ele>942</ele>
        <time>2019-12-28T18:58:22Z</time>
      </trkpt>
      <trkpt lat="47.78085" lon="6.90899">
        <ele>939</ele>
        <time>2019-12-28T18:58:37Z</time>
      </trkpt>
      <trkpt lat="47.781" lon="6.90876">
        <ele>936</ele>
        <time>2019-12-28T18:58:54Z</time>
      </trkpt>
      <trkpt lat="47.78107" lon="6.90852">
        <ele>933</ele>
        <time>2019-12-28T18:59:08Z</time>
      </trkpt>
      <trkpt lat="47.78122" lon="6.90824">
        <ele>930</ele>
        <time>2019-12-28T18:59:28Z</time>
      </trkpt>
      <trkpt lat="47.7818" lon="6.90744">
        <ele>923</ele>
        <time>2019-12-28T19:00:31Z</time>
      </trkpt>
      <trkpt lat="47.78186" lon="6.90739">
        <ele>923</ele>
        <time>2019-12-28T19:00:35Z</time>
      </trkpt>
      <trkpt lat="47.782" lon="6.90713">
        <ele>922</ele>
        <time>2019-12-28T19:01:10Z</time>
      </trkpt>
      <trkpt lat="47.78199" lon="6.90703">
        <ele>920</ele>
        <time>2019-12-28T19:01:17Z</time>
      </trkpt>
      <trkpt lat="47.78206" lon="6.90667">
        <ele>917</ele>
        <time>2019-12-28T19:01:35Z</time>
      </trkpt>
      <trkpt lat="47.7822" lon="6.90612">
        <ele>909</ele>
        <time>2019-12-28T19:02:04Z</time>
      </trkpt>
      <trkpt lat="47.7825" lon="6.90572">
        <ele>910</ele>
        <time>2019-12-28T19:02:38Z</time>
      </trkpt>
      <trkpt lat="47.78271" lon="6.90487">
        <ele>909</ele>
        <time>2019-12-28T19:03:29Z</time>
      </trkpt>
      <trkpt lat="47.78267" lon="6.90324">
        <ele>909</ele>
        <time>2019-12-28T19:04:57Z</time>
      </trkpt>
      <trkpt lat="47.78263" lon="6.90292">
        <ele>909</ele>
        <time>2019-12-28T19:05:14Z</time>
      </trkpt>
      <trkpt lat="47.78265" lon="6.90279">
        <ele>910</ele>
        <time>2019-12-28T19:05:22Z</time>
      </trkpt>
      <trkpt lat="47.78274" lon="6.90261">
        <ele>915</ele>
        <time>2019-12-28T19:05:34Z</time>
      </trkpt>
      <trkpt lat="47.78274" lon="6.90239">
        <ele>917</ele>
        <time>2019-12-28T19:05:46Z</time>
      </trkpt>
      <trkpt lat="47.78271" lon="6.90188">
        <ele>918</ele>
        <time>2019-12-28T19:06:09Z</time>
      </trkpt>
      <trkpt lat="47.78269" lon="6.90132">
        <ele>918</ele>
        <time>2019-12-28T19:06:44Z</time>
      </trkpt>
      <trkpt lat="47.78285" lon="6.89985">
        <ele>907</ele>
        <time>2019-12-28T19:08:03Z</time>
      </trkpt>
      <trkpt lat="47.78293" lon="6.89954">
        <ele>903</ele>
        <time>2019-12-28T19:08:13Z</time>
      </trkpt>
      <trkpt lat="47.78312" lon="6.89944">
        <ele>903</ele>
        <time>2019-12-28T19:08:23Z</time>
      </trkpt>
      <trkpt lat="47.78329" lon="6.89937">
        <ele>903</ele>
        <time>2019-12-28T19:08:34Z</time>
      </trkpt>
      <trkpt lat="47.7834" lon="6.89929">
        <ele>904</ele>
        <time>2019-12-28T19:08:44Z</time>
      </trkpt>
      <trkpt lat="47.78349" lon="6.8992">
        <ele>908</ele>
        <time>2019-12-28T19:09:03Z</time>
      </trkpt>
      <trkpt lat="47.78353" lon="6.89873">
        <ele>910</ele>
        <time>2019-12-28T19:09:41Z</time>
      </trkpt>
      <trkpt lat="47.78353" lon="6.89841">
        <ele>912</ele>
        <time>2019-12-28T19:09:48Z</time>
      </trkpt>
      <trkpt lat="47.78354" lon="6.89806">
        <ele>915</ele>
        <time>2019-12-28T19:10:16Z</time>
      </trkpt>
      <trkpt lat="47.78361" lon="6.89786">
        <ele>914</ele>
        <time>2019-12-28T19:10:25Z</time>
      </trkpt>
      <trkpt lat="47.78374" lon="6.89779">
        <ele>914</ele>
        <time>2019-12-28T19:10:37Z</time>
      </trkpt>
      <trkpt lat="47.78385" lon="6.89777">
        <ele>914</ele>
        <time>2019-12-28T19:10:46Z</time>
      </trkpt>
      <trkpt lat="47.78399" lon="6.89778">
        <ele>915</ele>
        <time>2019-12-28T19:10:57Z</time>
      </trkpt>
      <trkpt lat="47.78407" lon="6.89784">
        <ele>917</ele>
        <time>2019-12-28T19:11:05Z</time>
      </trkpt>
      <trkpt lat="47.78416" lon="6.89781">
        <ele>918</ele>
        <time>2019-12-28T19:11:07Z</time>
      </trkpt>
      <trkpt lat="47.78429" lon="6.89772">
        <ele>917</ele>
        <time>2019-12-28T19:11:27Z</time>
      </trkpt>
      <trkpt lat="47.78439" lon="6.89767">
        <ele>917</ele>
        <time>2019-12-28T19:11:35Z</time>
      </trkpt>
      <trkpt lat="47.78448" lon="6.89742">
        <ele>914</ele>
        <time>2019-12-28T19:11:50Z</time>
      </trkpt>
      <trkpt lat="47.7847" lon="6.89721">
        <ele>918</ele>
        <time>2019-12-28T19:12:16Z</time>
      </trkpt>
      <trkpt lat="47.78482" lon="6.89706">
        <ele>918</ele>
        <time>2019-12-28T19:12:25Z</time>
      </trkpt>
      <trkpt lat="47.78495" lon="6.89698">
        <ele>918</ele>
        <time>2019-12-28T19:12:38Z</time>
      </trkpt>
      <trkpt lat="47.78519" lon="6.89689">
        <ele>915</ele>
        <time>2019-12-28T19:12:58Z</time>
      </trkpt>
      <trkpt lat="47.7853" lon="6.89685">
        <ele>914</ele>
        <time>2019-12-28T19:13:06Z</time>
      </trkpt>
      <trkpt lat="47.78547" lon="6.89689">
        <ele>916</ele>
        <time>2019-12-28T19:13:26Z</time>
      </trkpt>
      <trkpt lat="47.7856" lon="6.89686">
        <ele>916</ele>
        <time>2019-12-28T19:13:37Z</time>
      </trkpt>
      <trkpt lat="47.78581" lon="6.89671">
        <ele>914</ele>
        <time>2019-12-28T19:13:55Z</time>
      </trkpt>
      <trkpt lat="47.78597" lon="6.89663">
        <ele>914</ele>
        <time>2019-12-28T19:14:09Z</time>
      </trkpt>
      <trkpt lat="47.78617" lon="6.89658">
        <ele>916</ele>
        <time>2019-12-28T19:14:25Z</time>
      </trkpt>
      <trkpt lat="47.78663" lon="6.89665">
        <ele>917</ele>
        <time>2019-12-28T19:14:58Z</time>
      </trkpt>
      <trkpt lat="47.78687" lon="6.89671">
        <ele>919</ele>
        <time>2019-12-28T19:15:12Z</time>
      </trkpt>
      <trkpt lat="47.78695" lon="6.89678">
        <ele>920</ele>
        <time>2019-12-28T19:15:27Z</time>
      </trkpt>
      <trkpt lat="47.78712" lon="6.89687">
        <ele>920</ele>
        <time>2019-12-28T19:15:40Z</time>
      </trkpt>
      <trkpt lat="47.78721" lon="6.89684">
        <ele>920</ele>
        <time>2019-12-28T19:15:49Z</time>
      </trkpt>
      <trkpt lat="47.78733" lon="6.89689">
        <ele>920</ele>
        <time>2019-12-28T19:15:57Z</time>
      </trkpt>
      <trkpt lat="47.78735" lon="6.89701">
        <ele>920</ele>
        <time>2019-12-28T19:16:05Z</time>
      </trkpt>
      <trkpt lat="47.78703" lon="6.89746">
        <ele>926</ele>
        <time>2019-12-28T19:18:18Z</time>
      </trkpt>
      <trkpt lat="47.78689" lon="6.89764">
        <ele>930</ele>
        <time>2019-12-28T19:18:30Z</time>
      </trkpt>
      <trkpt lat="47.78683" lon="6.89781">
        <ele>932</ele>
        <time>2019-12-28T19:18:45Z</time>
      </trkpt>
      <trkpt lat="47.78676" lon="6.89788">
        <ele>934</ele>
        <time>2019-12-28T19:18:50Z</time>
      </trkpt>
      <trkpt lat="47.78664" lon="6.89798">
        <ele>936</ele>
        <time>2019-12-28T19:19:03Z</time>
      </trkpt>
      <trkpt lat="47.78653" lon="6.89806">
        <ele>939</ele>
        <time>2019-12-28T19:19:13Z</time>
      </trkpt>
      <trkpt lat="47.78628" lon="6.89836">
        <ele>947</ele>
        <time>2019-12-28T19:19:38Z</time>
      </trkpt>
      <trkpt lat="47.78613" lon="6.89861">
        <ele>952</ele>
        <time>2019-12-28T19:19:56Z</time>
      </trkpt>
      <trkpt lat="47.78593" lon="6.89915">
        <ele>960</ele>
        <time>2019-12-28T19:20:29Z</time>
      </trkpt>
      <trkpt lat="47.78578" lon="6.89976">
        <ele>970</ele>
        <time>2019-12-28T19:21:04Z</time>
      </trkpt>
      <trkpt lat="47.78569" lon="6.89995">
        <ele>974</ele>
        <time>2019-12-28T19:21:17Z</time>
      </trkpt>
      <trkpt lat="47.78562" lon="6.90033">
        <ele>979</ele>
        <time>2019-12-28T19:21:38Z</time>
      </trkpt>
      <trkpt lat="47.78563" lon="6.90045">
        <ele>980</ele>
        <time>2019-12-28T19:21:45Z</time>
      </trkpt>
      <trkpt lat="47.78558" lon="6.90071">
        <ele>984</ele>
        <time>2019-12-28T19:21:59Z</time>
      </trkpt>
      <trkpt lat="47.78557" lon="6.90087">
        <ele>986</ele>
        <time>2019-12-28T19:22:10Z</time>
      </trkpt>
      <trkpt lat="47.78553" lon="6.90134">
        <ele>993</ele>
        <time>2019-12-28T19:22:35Z</time>
      </trkpt>
      <trkpt lat="47.78554" lon="6.90151">
        <ele>996</ele>
        <time>2019-12-28T19:22:44Z</time>
      </trkpt>
      <trkpt lat="47.78551" lon="6.90167">
        <ele>999</ele>
        <time>2019-12-28T19:22:53Z</time>
      </trkpt>
      <trkpt lat="47.78556" lon="6.90205">
        <ele>1002</ele>
        <time>2019-12-28T19:23:14Z</time>
      </trkpt>
      <trkpt lat="47.78548" lon="6.90238">
        <ele>1006</ele>
        <time>2019-12-28T19:23:33Z</time>
      </trkpt>
      <trkpt lat="47.78535" lon="6.90246">
        <ele>1010</ele>
        <time>2019-12-28T19:23:44Z</time>
      </trkpt>
      <trkpt lat="47.78529" lon="6.90255">
        <ele>1012</ele>
        <time>2019-12-28T19:23:51Z</time>
      </trkpt>
      <trkpt lat="47.7853" lon="6.90272">
        <ele>1013</ele>
        <time>2019-12-28T19:24:07Z</time>
      </trkpt>
      <trkpt lat="47.7853" lon="6.90279">
        <ele>1013</ele>
        <time>2019-12-28T19:24:09Z</time>
      </trkpt>
      <trkpt lat="47.78529" lon="6.9029">
        <ele>1015</ele>
        <time>2019-12-28T19:24:21Z</time>
      </trkpt>
      <trkpt lat="47.78527" lon="6.90329">
        <ele>1016</ele>
        <time>2019-12-28T19:24:42Z</time>
      </trkpt>
      <trkpt lat="47.78531" lon="6.90367">
        <ele>1017</ele>
        <time>2019-12-28T19:25:03Z</time>
      </trkpt>
      <trkpt lat="47.78544" lon="6.90402">
        <ele>1017</ele>
        <time>2019-12-28T19:25:25Z</time>
      </trkpt>
      <trkpt lat="47.7855" lon="6.90427">
        <ele>1018</ele>
        <time>2019-12-28T19:25:39Z</time>
      </trkpt>
      <trkpt lat="47.7855" lon="6.90445">
        <ele>1018</ele>
        <time>2019-12-28T19:25:49Z</time>
      </trkpt>
      <trkpt lat="47.78554" lon="6.90465">
        <ele>1016</ele>
        <time>2019-12-28T19:26:00Z</time>
      </trkpt>
      <trkpt lat="47.78553" lon="6.90485">
        <ele>1016</ele>
        <time>2019-12-28T19:26:11Z</time>
      </trkpt>
      <trkpt lat="47.78538" lon="6.90541">
        <ele>1018</ele>
        <time>2019-12-28T19:26:43Z</time>
      </trkpt>
      <trkpt lat="47.78535" lon="6.9056">
        <ele>1017</ele>
        <time>2019-12-28T19:26:54Z</time>
      </trkpt>
      <trkpt lat="47.78537" lon="6.90565">
        <ele>1017</ele>
        <time>2019-12-28T19:26:57Z</time>
      </trkpt>
      <trkpt lat="47.78536" lon="6.90585">
        <ele>1017</ele>
        <time>2019-12-28T19:27:08Z</time>
      </trkpt>
      <trkpt lat="47.78539" lon="6.90637">
        <ele>1019</ele>
        <time>2019-12-28T19:27:36Z</time>
      </trkpt>
      <trkpt lat="47.78542" lon="6.90658">
        <ele>1020</ele>
        <time>2019-12-28T19:27:47Z</time>
      </trkpt>
      <trkpt lat="47.78562" lon="6.90703">
        <ele>1019</ele>
        <time>2019-12-28T19:28:16Z</time>
      </trkpt>
      <trkpt lat="47.78571" lon="6.90743">
        <ele>1018</ele>
        <time>2019-12-28T19:28:39Z</time>
      </trkpt>
      <trkpt lat="47.7857" lon="6.90756">
        <ele>1018</ele>
        <time>2019-12-28T19:28:46Z</time>
      </trkpt>
      <trkpt lat="47.78565" lon="6.90765">
        <ele>1019</ele>
        <time>2019-12-28T19:28:52Z</time>
      </trkpt>
      <trkpt lat="47.78557" lon="6.90796">
        <ele>1019</ele>
        <time>2019-12-28T19:29:10Z</time>
      </trkpt>
      <trkpt lat="47.78548" lon="6.9088">
        <ele>1017</ele>
        <time>2019-12-28T19:29:56Z</time>
      </trkpt>
      <trkpt lat="47.78546" lon="6.90934">
        <ele>1018</ele>
        <time>2019-12-28T19:30:25Z</time>
      </trkpt>
      <trkpt lat="47.78565" lon="6.91081">
        <ele>1011</ele>
        <time>2019-12-28T19:31:45Z</time>
      </trkpt>
      <trkpt lat="47.78555" lon="6.91148">
        <ele>1011</ele>
        <time>2019-12-28T19:32:22Z</time>
      </trkpt>
      <trkpt lat="47.78557" lon="6.91164">
        <ele>1009</ele>
        <time>2019-12-28T19:32:31Z</time>
      </trkpt>
      <trkpt lat="47.78561" lon="6.91175">
        <ele>1007</ele>
        <time>2019-12-28T19:32:38Z</time>
      </trkpt>
      <trkpt lat="47.78566" lon="6.91185">
        <ele>1005</ele>
        <time>2019-12-28T19:32:45Z</time>
      </trkpt>
      <trkpt lat="47.78575" lon="6.91189">
        <ele>1001</ele>
        <time>2019-12-28T19:32:52Z</time>
      </trkpt>
      <trkpt lat="47.78581" lon="6.91219">
        <ele>997</ele>
        <time>2019-12-28T19:33:09Z</time>
      </trkpt>
      <trkpt lat="47.78566" lon="6.91262">
        <ele>1004</ele>
        <time>2019-12-28T19:33:35Z</time>
      </trkpt>
      <trkpt lat="47.78566" lon="6.91277">
        <ele>1004</ele>
        <time>2019-12-28T19:33:43Z</time>
      </trkpt>
      <trkpt lat="47.78558" lon="6.91303">
        <ele>1007</ele>
        <time>2019-12-28T19:33:58Z</time>
      </trkpt>
      <trkpt lat="47.78542" lon="6.9132">
        <ele>1007</ele>
        <time>2019-12-28T19:34:17Z</time>
      </trkpt>
      <trkpt lat="47.78534" lon="6.91335">
        <ele>1007</ele>
        <time>2019-12-28T19:34:32Z</time>
      </trkpt>
      <trkpt lat="47.78521" lon="6.91349">
        <ele>1006</ele>
        <time>2019-12-28T19:34:40Z</time>
      </trkpt>
      <trkpt lat="47.78508" lon="6.91367">
        <ele>1005</ele>
        <time>2019-12-28T19:34:50Z</time>
      </trkpt>
      <trkpt lat="47.78483" lon="6.91402">
        <ele>1000</ele>
        <time>2019-12-28T19:35:24Z</time>
      </trkpt>
      <trkpt lat="47.78474" lon="6.91414">
        <ele>999</ele>
        <time>2019-12-28T19:35:34Z</time>
      </trkpt>
      <trkpt lat="47.78458" lon="6.91443">
        <ele>999</ele>
        <time>2019-12-28T19:40:38Z</time>
      </trkpt>
      <trkpt lat="47.78451" lon="6.91505">
        <ele>1000</ele>
        <time>2019-12-28T19:40:50Z</time>
      </trkpt>
      <trkpt lat="47.7845" lon="6.91525">
        <ele>1001</ele>
        <time>2019-12-28T19:40:55Z</time>
      </trkpt>
      <trkpt lat="47.78454" lon="6.91566">
        <ele>1002</ele>
        <time>2019-12-28T19:41:08Z</time>
      </trkpt>
      <trkpt lat="47.7846" lon="6.91601">
        <ele>1002</ele>
        <time>2019-12-28T19:41:39Z</time>
      </trkpt>
      <trkpt lat="47.78466" lon="6.91632">
        <ele>1000</ele>
        <time>2019-12-28T19:41:49Z</time>
      </trkpt>
      <trkpt lat="47.78444" lon="6.91638">
        <ele>1000</ele>
        <time>2019-12-28T19:42:03Z</time>
      </trkpt>
      <trkpt lat="47.78433" lon="6.91655">
        <ele>998</ele>
        <time>2019-12-28T19:42:23Z</time>
      </trkpt>
      <trkpt lat="47.78425" lon="6.91672">
        <ele>997</ele>
        <time>2019-12-28T19:42:34Z</time>
      </trkpt>
      <trkpt lat="47.78415" lon="6.91749">
        <ele>993</ele>
        <time>2019-12-28T19:43:16Z</time>
      </trkpt>
      <trkpt lat="47.78406" lon="6.91756">
        <ele>992</ele>
        <time>2019-12-28T19:43:24Z</time>
      </trkpt>
      <trkpt lat="47.78378" lon="6.91754">
        <ele>984</ele>
        <time>2019-12-28T19:43:47Z</time>
      </trkpt>
      <trkpt lat="47.78359" lon="6.91749">
        <ele>978</ele>
        <time>2019-12-28T19:44:02Z</time>
      </trkpt>
      <trkpt lat="47.78349" lon="6.9174">
        <ele>975</ele>
        <time>2019-12-28T19:44:12Z</time>
      </trkpt>
      <trkpt lat="47.78316" lon="6.91723">
        <ele>966</ele>
        <time>2019-12-28T19:44:40Z</time>
      </trkpt>
      <trkpt lat="47.78299" lon="6.91725">
        <ele>961</ele>
        <time>2019-12-28T19:44:53Z</time>
      </trkpt>
      <trkpt lat="47.7827" lon="6.91735">
        <ele>952</ele>
        <time>2019-12-28T19:45:17Z</time>
      </trkpt>
      <trkpt lat="47.78258" lon="6.91743">
        <ele>948</ele>
        <time>2019-12-28T19:45:28Z</time>
      </trkpt>
      <trkpt lat="47.7824" lon="6.9175">
        <ele>943</ele>
        <time>2019-12-28T19:45:42Z</time>
      </trkpt>
      <trkpt lat="47.78196" lon="6.91761">
        <ele>928</ele>
        <time>2019-12-28T19:46:18Z</time>
      </trkpt>
      <trkpt lat="47.78181" lon="6.91776">
        <ele>922</ele>
        <time>2019-12-28T19:46:33Z</time>
      </trkpt>
      <trkpt lat="47.78181" lon="6.91786">
        <ele>921</ele>
        <time>2019-12-28T19:46:38Z</time>
      </trkpt>
      <trkpt lat="47.78177" lon="6.91794">
        <ele>919</ele>
        <time>2019-12-28T19:46:43Z</time>
      </trkpt>
      <trkpt lat="47.78163" lon="6.91769">
        <ele>915</ele>
        <time>2019-12-28T19:47:01Z</time>
      </trkpt>
      <trkpt lat="47.78151" lon="6.91753">
        <ele>912</ele>
        <time>2019-12-28T19:47:14Z</time>
      </trkpt>
      <trkpt lat="47.78144" lon="6.91729">
        <ele>912</ele>
        <time>2019-12-28T19:47:28Z</time>
      </trkpt>
      <trkpt lat="47.78137" lon="6.91717">
        <ele>910</ele>
        <time>2019-12-28T19:47:36Z</time>
      </trkpt>
      <trkpt lat="47.78134" lon="6.91701">
        <ele>910</ele>
        <time>2019-12-28T19:47:45Z</time>
      </trkpt>
      <trkpt lat="47.78124" lon="6.9168">
        <ele>908</ele>
        <time>2019-12-28T19:47:59Z</time>
      </trkpt>
      <trkpt lat="47.78111" lon="6.91651">
        <ele>905</ele>
        <time>2019-12-28T19:48:34Z</time>
      </trkpt>
      <trkpt lat="47.78104" lon="6.91614">
        <ele>905</ele>
        <time>2019-12-28T19:48:41Z</time>
      </trkpt>
      <trkpt lat="47.78097" lon="6.91598">
        <ele>903</ele>
        <time>2019-12-28T19:48:51Z</time>
      </trkpt>
      <trkpt lat="47.78082" lon="6.91536">
        <ele>897</ele>
        <time>2019-12-28T19:49:26Z</time>
      </trkpt>
      <trkpt lat="47.78079" lon="6.91514">
        <ele>897</ele>
        <time>2019-12-28T19:49:38Z</time>
      </trkpt>
      <trkpt lat="47.78083" lon="6.91436">
        <ele>903</ele>
        <time>2019-12-28T19:50:21Z</time>
      </trkpt>
      <trkpt lat="47.78081" lon="6.91421">
        <ele>904</ele>
        <time>2019-12-28T19:50:29Z</time>
      </trkpt>
      <trkpt lat="47.78073" lon="6.91408">
        <ele>904</ele>
        <time>2019-12-28T19:50:38Z</time>
      </trkpt>
      <trkpt lat="47.7802" lon="6.91387">
        <ele>902</ele>
        <time>2019-12-28T19:51:22Z</time>
      </trkpt>
      <trkpt lat="47.7801" lon="6.91381">
        <ele>903</ele>
        <time>2019-12-28T19:51:31Z</time>
      </trkpt>
      <trkpt lat="47.77994" lon="6.91385">
        <ele>905</ele>
        <time>2019-12-28T19:51:44Z</time>
      </trkpt>
      <trkpt lat="47.77989" lon="6.91377">
        <ele>908</ele>
        <time>2019-12-28T19:51:50Z</time>
      </trkpt>
      <trkpt lat="47.78002" lon="6.91304">
        <ele>921</ele>
        <time>2019-12-28T19:52:30Z</time>
      </trkpt>
      <trkpt lat="47.78016" lon="6.91263">
        <ele>926</ele>
        <time>2019-12-28T19:52:55Z</time>
      </trkpt>
      <trkpt lat="47.78023" lon="6.91218">
        <ele>932</ele>
        <time>2019-12-28T19:53:20Z</time>
      </trkpt>
      <trkpt lat="47.78045" lon="6.91175">
        <ele>936</ele>
        <time>2019-12-28T19:53:51Z</time>
      </trkpt>
      <trkpt lat="47.78057" lon="6.91148">
        <ele>939</ele>
        <time>2019-12-28T19:54:07Z</time>
      </trkpt>
      <trkpt lat="47.78062" lon="6.91112">
        <ele>943</ele>
        <time>2019-12-28T19:54:27Z</time>
      </trkpt>
      <trkpt lat="47.78064" lon="6.9109">
        <ele>944</ele>
        <time>2019-12-28T19:54:33Z</time>
      </trkpt>
      <trkpt lat="47.78065" lon="6.91048">
        <ele>945</ele>
        <time>2019-12-28T19:54:45Z</time>
      </trkpt>
      <trkpt lat="47.78025" lon="6.91063">
        <ele>948</ele>
        <time>2019-12-28T19:55:07Z</time>
      </trkpt>
      <trkpt lat="47.78004" lon="6.91074">
        <ele>950</ele>
        <time>2019-12-28T19:55:22Z</time>
      </trkpt>
      <trkpt lat="47.77992" lon="6.91081">
        <ele>951</ele>
        <time>2019-12-28T19:55:32Z</time>
      </trkpt>
      <trkpt lat="47.77985" lon="6.91086">
        <ele>952</ele>
        <time>2019-12-28T19:55:39Z</time>
      </trkpt>
      <trkpt lat="47.77954" lon="6.91122">
        <ele>957</ele>
        <time>2019-12-28T19:56:10Z</time>
      </trkpt>
      <trkpt lat="47.77897" lon="6.9122">
        <ele>965</ele>
        <time>2019-12-28T19:57:20Z</time>
      </trkpt>
      <trkpt lat="47.77892" lon="6.91236">
        <ele>964</ele>
        <time>2019-12-28T19:57:29Z</time>
      </trkpt>
      <trkpt lat="47.77879" lon="6.91252">
        <ele>967</ele>
        <time>2019-12-28T19:57:43Z</time>
      </trkpt>
      <trkpt lat="47.7786" lon="6.91283">
        <ele>971</ele>
        <time>2019-12-28T19:58:05Z</time>
      </trkpt>
      <trkpt lat="47.77845" lon="6.91296">
        <ele>974</ele>
        <time>2019-12-28T19:58:19Z</time>
      </trkpt>
      <trkpt lat="47.77837" lon="6.91298">
        <ele>976</ele>
        <time>2019-12-28T19:58:26Z</time>
      </trkpt>
      <trkpt lat="47.77824" lon="6.91319">
        <ele>975</ele>
        <time>2019-12-28T19:58:41Z</time>
      </trkpt>
      <trkpt lat="47.77804" lon="6.91336">
        <ele>978</ele>
        <time>2019-12-28T19:59:00Z</time>
      </trkpt>
      <trkpt lat="47.77786" lon="6.91356">
        <ele>978</ele>
        <time>2019-12-28T19:59:18Z</time>
      </trkpt>
      <trkpt lat="47.7778" lon="6.91359">
        <ele>978</ele>
        <time>2019-12-28T19:59:23Z</time>
      </trkpt>
      <trkpt lat="47.77764" lon="6.91372">
        <ele>978</ele>
        <time>2019-12-28T19:59:46Z</time>
      </trkpt>
      <trkpt lat="47.77752" lon="6.91417">
        <ele>978</ele>
        <time>2019-12-28T20:00:00Z</time>
      </trkpt>
      <trkpt lat="47.7774" lon="6.91476">
        <ele>979</ele>
        <time>2019-12-28T20:00:36Z</time>
      </trkpt>
      <trkpt lat="47.77735" lon="6.91494">
        <ele>980</ele>
        <time>2019-12-28T20:00:45Z</time>
      </trkpt>
      <trkpt lat="47.77722" lon="6.91539">
        <ele>981</ele>
        <time>2019-12-28T20:01:11Z</time>
      </trkpt>
      <trkpt lat="47.77713" lon="6.91553">
        <ele>983</ele>
        <time>2019-12-28T20:01:21Z</time>
      </trkpt>
      <trkpt lat="47.77707" lon="6.91584">
        <ele>984</ele>
        <time>2019-12-28T20:01:39Z</time>
      </trkpt>
      <trkpt lat="47.77699" lon="6.91595">
        <ele>986</ele>
        <time>2019-12-28T20:01:47Z</time>
      </trkpt>
      <trkpt lat="47.7768" lon="6.91657">
        <ele>990</ele>
        <time>2019-12-28T20:02:24Z</time>
      </trkpt>
      <trkpt lat="47.77679" lon="6.91696">
        <ele>986</ele>
        <time>2019-12-28T20:02:45Z</time>
      </trkpt>
      <trkpt lat="47.77657" lon="6.91759">
        <ele>985</ele>
        <time>2019-12-28T20:03:23Z</time>
      </trkpt>
      <trkpt lat="47.7765" lon="6.91792">
        <ele>984</ele>
        <time>2019-12-28T20:03:42Z</time>
      </trkpt>
      <trkpt lat="47.77637" lon="6.91828">
        <ele>985</ele>
        <time>2019-12-28T20:04:04Z</time>
      </trkpt>
      <trkpt lat="47.77636" lon="6.91846">
        <ele>983</ele>
        <time>2019-12-28T20:04:14Z</time>
      </trkpt>
      <trkpt lat="47.77624" lon="6.919">
        <ele>982</ele>
        <time>2019-12-28T20:04:44Z</time>
      </trkpt>
      <trkpt lat="47.77586" lon="6.91968">
        <ele>990</ele>
        <time>2019-12-28T20:05:32Z</time>
      </trkpt>
      <trkpt lat="47.77558" lon="6.92029">
        <ele>994</ele>
        <time>2019-12-28T20:06:12Z</time>
      </trkpt>
      <trkpt lat="47.77542" lon="6.92055">
        <ele>1000</ele>
        <time>2019-12-28T20:06:31Z</time>
      </trkpt>
      <trkpt lat="47.77541" lon="6.92064">
        <ele>999</ele>
        <time>2019-12-28T20:06:35Z</time>
      </trkpt>
      <trkpt lat="47.77533" lon="6.92081">
        <ele>1001</ele>
        <time>2019-12-28T20:06:47Z</time>
      </trkpt>
      <trkpt lat="47.77508" lon="6.92114">
        <ele>1005</ele>
        <time>2019-12-28T20:07:13Z</time>
      </trkpt>
      <trkpt lat="47.77499" lon="6.92143">
        <ele>1005</ele>
        <time>2019-12-28T20:07:31Z</time>
      </trkpt>
      <trkpt lat="47.77477" lon="6.92184">
        <ele>1012</ele>
        <time>2019-12-28T20:07:53Z</time>
      </trkpt>
      <trkpt lat="47.77465" lon="6.92211">
        <ele>1016</ele>
        <time>2019-12-28T20:08:20Z</time>
      </trkpt>
      <trkpt lat="47.77454" lon="6.9223">
        <ele>1018</ele>
        <time>2019-12-28T20:08:32Z</time>
      </trkpt>
      <trkpt lat="47.77442" lon="6.92263">
        <ele>1019</ele>
        <time>2019-12-28T20:08:49Z</time>
      </trkpt>
      <trkpt lat="47.77432" lon="6.92292">
        <ele>1018</ele>
        <time>2019-12-28T20:09:08Z</time>
      </trkpt>
      <trkpt lat="47.77424" lon="6.92311">
        <ele>1018</ele>
        <time>2019-12-28T20:09:18Z</time>
      </trkpt>
      <trkpt lat="47.77416" lon="6.92337">
        <ele>1017</ele>
        <time>2019-12-28T20:09:33Z</time>
      </trkpt>
      <trkpt lat="47.77406" lon="6.92355">
        <ele>1017</ele>
        <time>2019-12-28T20:09:54Z</time>
      </trkpt>
      <trkpt lat="47.77396" lon="6.92369">
        <ele>1017</ele>
        <time>2019-12-28T20:10:04Z</time>
      </trkpt>
      <trkpt lat="47.77384" lon="6.92372">
        <ele>1020</ele>
        <time>2019-12-28T20:10:13Z</time>
      </trkpt>
      <trkpt lat="47.77352" lon="6.92391">
        <ele>1022</ele>
        <time>2019-12-28T20:10:41Z</time>
      </trkpt>
      <trkpt lat="47.77337" lon="6.92408">
        <ele>1019</ele>
        <time>2019-12-28T20:10:56Z</time>
      </trkpt>
      <trkpt lat="47.77309" lon="6.92429">
        <ele>1015</ele>
        <time>2019-12-28T20:11:21Z</time>
      </trkpt>
      <trkpt lat="47.77296" lon="6.92427">
        <ele>1017</ele>
        <time>2019-12-28T20:11:32Z</time>
      </trkpt>
      <trkpt lat="47.77281" lon="6.92415">
        <ele>1021</ele>
        <time>2019-12-28T20:11:45Z</time>
      </trkpt>
      <trkpt lat="47.77272" lon="6.92385">
        <ele>1029</ele>
        <time>2019-12-28T20:12:03Z</time>
      </trkpt>
      <trkpt lat="47.77278" lon="6.92351">
        <ele>1040</ele>
        <time>2019-12-28T20:12:22Z</time>
      </trkpt>
      <trkpt lat="47.77267" lon="6.92332">
        <ele>1046</ele>
        <time>2019-12-28T20:12:35Z</time>
      </trkpt>
      <trkpt lat="47.77257" lon="6.92322">
        <ele>1050</ele>
        <time>2019-12-28T20:12:53Z</time>
      </trkpt>
      <trkpt lat="47.77261" lon="6.92312">
        <ele>1053</ele>
        <time>2019-12-28T20:12:59Z</time>
      </trkpt>
      <trkpt lat="47.77265" lon="6.92296">
        <ele>1057</ele>
        <time>2019-12-28T20:13:09Z</time>
      </trkpt>
      <trkpt lat="47.77265" lon="6.92276">
        <ele>1063</ele>
        <time>2019-12-28T20:13:19Z</time>
      </trkpt>
      <trkpt lat="47.77262" lon="6.92275">
        <ele>1064</ele>
        <time>2019-12-28T20:13:22Z</time>
      </trkpt>
      <trkpt lat="47.77259" lon="6.92258">
        <ele>1069</ele>
        <time>2019-12-28T20:13:31Z</time>
      </trkpt>
      <trkpt lat="47.77249" lon="6.92243">
        <ele>1068</ele>
        <time>2019-12-28T20:13:43Z</time>
      </trkpt>
      <trkpt lat="47.77228" lon="6.9222">
        <ele>1064</ele>
        <time>2019-12-28T20:14:04Z</time>
      </trkpt>
      <trkpt lat="47.77236" lon="6.9221">
        <ele>1066</ele>
        <time>2019-12-28T20:14:20Z</time>
      </trkpt>
      <trkpt lat="47.77261" lon="6.92209">
        <ele>1071</ele>
        <time>2019-12-28T20:14:40Z</time>
      </trkpt>
      <trkpt lat="47.77272" lon="6.92205">
        <ele>1070</ele>
        <time>2019-12-28T20:14:49Z</time>
      </trkpt>
      <trkpt lat="47.7728" lon="6.92196">
        <ele>1070</ele>
        <time>2019-12-28T20:14:57Z</time>
      </trkpt>
      <trkpt lat="47.77285" lon="6.92185">
        <ele>1069</ele>
        <time>2019-12-28T20:15:04Z</time>
      </trkpt>
      <trkpt lat="47.77299" lon="6.92167">
        <ele>1066</ele>
        <time>2019-12-28T20:15:19Z</time>
      </trkpt>
      <trkpt lat="47.7731" lon="6.92131">
        <ele>1060</ele>
        <time>2019-12-28T20:15:40Z</time>
      </trkpt>
      <trkpt lat="47.77311" lon="6.92118">
        <ele>1058</ele>
        <time>2019-12-28T20:15:48Z</time>
      </trkpt>
      <trkpt lat="47.7732" lon="6.92096">
        <ele>1055</ele>
        <time>2019-12-28T20:15:59Z</time>
      </trkpt>
      <trkpt lat="47.77329" lon="6.92055">
        <ele>1051</ele>
        <time>2019-12-28T20:16:26Z</time>
      </trkpt>
      <trkpt lat="47.77344" lon="6.92029">
        <ele>1051</ele>
        <time>2019-12-28T20:16:44Z</time>
      </trkpt>
      <trkpt lat="47.77356" lon="6.91989">
        <ele>1051</ele>
        <time>2019-12-28T20:17:08Z</time>
      </trkpt>
      <trkpt lat="47.77362" lon="6.9199">
        <ele>1051</ele>
        <time>2019-12-28T20:17:13Z</time>
      </trkpt>
      <trkpt lat="47.77374" lon="6.91956">
        <ele>1050</ele>
        <time>2019-12-28T20:17:29Z</time>
      </trkpt>
      <trkpt lat="47.77385" lon="6.91932">
        <ele>1051</ele>
        <time>2019-12-28T20:17:48Z</time>
      </trkpt>
      <trkpt lat="47.77404" lon="6.91895">
        <ele>1052</ele>
        <time>2019-12-28T20:18:18Z</time>
      </trkpt>
      <trkpt lat="47.77425" lon="6.91865">
        <ele>1052</ele>
        <time>2019-12-28T20:18:45Z</time>
      </trkpt>
      <trkpt lat="47.77439" lon="6.91846">
        <ele>1051</ele>
        <time>2019-12-28T20:19:00Z</time>
      </trkpt>
      <trkpt lat="47.77449" lon="6.91835">
        <ele>1051</ele>
        <time>2019-12-28T20:19:08Z</time>
      </trkpt>
      <trkpt lat="47.77457" lon="6.91821">
        <ele>1051</ele>
        <time>2019-12-28T20:19:18Z</time>
      </trkpt>
      <trkpt lat="47.77497" lon="6.91777">
        <ele>1042</ele>
        <time>2019-12-28T20:19:58Z</time>
      </trkpt>
      <trkpt lat="47.77534" lon="6.91743">
        <ele>1033</ele>
        <time>2019-12-28T20:20:33Z</time>
      </trkpt>
      <trkpt lat="47.77554" lon="6.91716">
        <ele>1029</ele>
        <time>2019-12-28T20:20:54Z</time>
      </trkpt>
      <trkpt lat="47.77573" lon="6.91699">
        <ele>1026</ele>
        <time>2019-12-28T20:21:12Z</time>
      </trkpt>
      <trkpt lat="47.77583" lon="6.91686">
        <ele>1025</ele>
        <time>2019-12-28T20:21:23Z</time>
      </trkpt>
      <trkpt lat="47.7759" lon="6.91667">
        <ele>1024</ele>
        <time>2019-12-28T20:21:34Z</time>
      </trkpt>
      <trkpt lat="47.7759" lon="6.9166">
        <ele>1024</ele>
        <time>2019-12-28T20:21:38Z</time>
      </trkpt>
      <trkpt lat="47.77589" lon="6.91648">
        <ele>1023</ele>
        <time>2019-12-28T20:21:45Z</time>
      </trkpt>
      <trkpt lat="47.7758" lon="6.91639">
        <ele>1023</ele>
        <time>2019-12-28T20:21:53Z</time>
      </trkpt>
      <trkpt lat="47.77581" lon="6.91608">
        <ele>1020</ele>
        <time>2019-12-28T20:22:10Z</time>
      </trkpt>
      <trkpt lat="47.77587" lon="6.9158">
        <ele>1015</ele>
        <time>2019-12-28T20:22:26Z</time>
      </trkpt>
      <trkpt lat="47.77604" lon="6.91543">
        <ele>1008</ele>
        <time>2019-12-28T20:22:50Z</time>
      </trkpt>
      <trkpt lat="47.7763" lon="6.91512">
        <ele>1002</ele>
        <time>2019-12-28T20:23:17Z</time>
      </trkpt>
      <trkpt lat="47.77674" lon="6.91478">
        <ele>992</ele>
        <time>2019-12-28T20:23:56Z</time>
      </trkpt>
      <trkpt lat="47.77702" lon="6.91429">
        <ele>984</ele>
        <time>2019-12-28T20:24:35Z</time>
      </trkpt>
      <trkpt lat="47.77722" lon="6.91391">
        <ele>979</ele>
        <time>2019-12-28T20:25:02Z</time>
      </trkpt>
      <trkpt lat="47.77748" lon="6.91338">
        <ele>981</ele>
        <time>2019-12-28T20:25:46Z</time>
      </trkpt>
      <trkpt lat="47.77755" lon="6.91313">
        <ele>983</ele>
        <time>2019-12-28T20:26:01Z</time>
      </trkpt>
      <trkpt lat="47.7776" lon="6.91284">
        <ele>986</ele>
        <time>2019-12-28T20:26:17Z</time>
      </trkpt>
      <trkpt lat="47.7776" lon="6.91237">
        <ele>991</ele>
        <time>2019-12-28T20:26:42Z</time>
      </trkpt>
      <trkpt lat="47.77767" lon="6.9119">
        <ele>994</ele>
        <time>2019-12-28T20:27:08Z</time>
      </trkpt>
      <trkpt lat="47.77763" lon="6.91165">
        <ele>994</ele>
        <time>2019-12-28T20:27:22Z</time>
      </trkpt>
      <trkpt lat="47.77758" lon="6.9115">
        <ele>996</ele>
        <time>2019-12-28T20:27:31Z</time>
      </trkpt>
      <trkpt lat="47.77744" lon="6.91133">
        <ele>995</ele>
        <time>2019-12-28T20:27:45Z</time>
      </trkpt>
      <trkpt lat="47.77726" lon="6.91101">
        <ele>996</ele>
        <time>2019-12-28T20:28:08Z</time>
      </trkpt>
      <trkpt lat="47.77683" lon="6.91047">
        <ele>989</ele>
        <time>2019-12-28T20:28:53Z</time>
      </trkpt>
      <trkpt lat="47.77679" lon="6.91028">
        <ele>991</ele>
        <time>2019-12-28T20:29:03Z</time>
      </trkpt>
      <trkpt lat="47.77664" lon="6.91005">
        <ele>989</ele>
        <time>2019-12-28T20:29:20Z</time>
      </trkpt>
      <trkpt lat="47.77649" lon="6.90986">
        <ele>987</ele>
        <time>2019-12-28T20:29:43Z</time>
      </trkpt>
      <trkpt lat="47.77634" lon="6.90955">
        <ele>988</ele>
        <time>2019-12-28T20:29:57Z</time>
      </trkpt>
      <trkpt lat="47.77631" lon="6.90922">
        <ele>990</ele>
        <time>2019-12-28T20:30:16Z</time>
      </trkpt>
      <trkpt lat="47.7762" lon="6.90873">
        <ele>989</ele>
        <time>2019-12-28T20:30:40Z</time>
      </trkpt>
      <trkpt lat="47.7762" lon="6.90853">
        <ele>989</ele>
        <time>2019-12-28T20:30:51Z</time>
      </trkpt>
      <trkpt lat="47.77609" lon="6.908">
        <ele>986</ele>
        <time>2019-12-28T20:31:20Z</time>
      </trkpt>
      <trkpt lat="47.77607" lon="6.90776">
        <ele>986</ele>
        <time>2019-12-28T20:31:33Z</time>
      </trkpt>
      <trkpt lat="47.77598" lon="6.90752">
        <ele>982</ele>
        <time>2019-12-28T20:31:48Z</time>
      </trkpt>
      <trkpt lat="47.77589" lon="6.90717">
        <ele>979</ele>
        <time>2019-12-28T20:32:08Z</time>
      </trkpt>
      <trkpt lat="47.77582" lon="6.90682">
        <ele>977</ele>
        <time>2019-12-28T20:32:28Z</time>
      </trkpt>
      <trkpt lat="47.77577" lon="6.90639">
        <ele>975</ele>
        <time>2019-12-28T20:32:52Z</time>
      </trkpt>
      <trkpt lat="47.77582" lon="6.90553">
        <ele>973</ele>
        <time>2019-12-28T20:33:38Z</time>
      </trkpt>
      <trkpt lat="47.77587" lon="6.90525">
        <ele>974</ele>
        <time>2019-12-28T20:33:54Z</time>
      </trkpt>
      <trkpt lat="47.77587" lon="6.90502">
        <ele>972</ele>
        <time>2019-12-28T20:34:01Z</time>
      </trkpt>
      <trkpt lat="47.77585" lon="6.90468">
        <ele>973</ele>
        <time>2019-12-28T20:34:27Z</time>
      </trkpt>
      <trkpt lat="47.77566" lon="6.90459">
        <ele>968</ele>
        <time>2019-12-28T20:34:43Z</time>
      </trkpt>
      <trkpt lat="47.7755" lon="6.90461">
        <ele>961</ele>
        <time>2019-12-28T20:34:56Z</time>
      </trkpt>
      <trkpt lat="47.77541" lon="6.90466">
        <ele>956</ele>
        <time>2019-12-28T20:35:03Z</time>
      </trkpt>
      <trkpt lat="47.77529" lon="6.90463">
        <ele>954</ele>
        <time>2019-12-28T20:35:13Z</time>
      </trkpt>
      <trkpt lat="47.77524" lon="6.90468">
        <ele>950</ele>
        <time>2019-12-28T20:35:18Z</time>
      </trkpt>
      <trkpt lat="47.77528" lon="6.90478">
        <ele>948</ele>
        <time>2019-12-28T20:35:24Z</time>
      </trkpt>
      <trkpt lat="47.77533" lon="6.9048">
        <ele>949</ele>
        <time>2019-12-28T20:35:28Z</time>
      </trkpt>
      <trkpt lat="47.77531" lon="6.90492">
        <ele>946</ele>
        <time>2019-12-28T20:35:35Z</time>
      </trkpt>
      <trkpt lat="47.77534" lon="6.90494">
        <ele>947</ele>
        <time>2019-12-28T20:35:38Z</time>
      </trkpt>
      <trkpt lat="47.77531" lon="6.90498">
        <ele>945</ele>
        <time>2019-12-28T20:35:41Z</time>
      </trkpt>
      <trkpt lat="47.77535" lon="6.90516">
        <ele>944</ele>
        <time>2019-12-28T20:35:51Z</time>
      </trkpt>
      <trkpt lat="47.77528" lon="6.90509">
        <ele>942</ele>
        <time>2019-12-28T20:35:58Z</time>
      </trkpt>
      <trkpt lat="47.77527" lon="6.90514">
        <ele>940</ele>
        <time>2019-12-28T20:36:01Z</time>
      </trkpt>
      <trkpt lat="47.77517" lon="6.90501">
        <ele>939</ele>
        <time>2019-12-28T20:36:11Z</time>
      </trkpt>
      <trkpt lat="47.77504" lon="6.90498">
        <ele>935</ele>
        <time>2019-12-28T20:36:22Z</time>
      </trkpt>
      <trkpt lat="47.77487" lon="6.90493">
        <ele>933</ele>
        <time>2019-12-28T20:36:37Z</time>
      </trkpt>
      <trkpt lat="47.77471" lon="6.9049">
        <ele>931</ele>
        <time>2019-12-28T20:36:50Z</time>
      </trkpt>
      <trkpt lat="47.77435" lon="6.90491">
        <ele>925</ele>
        <time>2019-12-28T20:37:19Z</time>
      </trkpt>
      <trkpt lat="47.77424" lon="6.90488">
        <ele>925</ele>
        <time>2019-12-28T20:37:28Z</time>
      </trkpt>
      <trkpt lat="47.77398" lon="6.90471">
        <ele>926</ele>
        <time>2019-12-28T20:37:51Z</time>
      </trkpt>
      <trkpt lat="47.77395" lon="6.90473">
        <ele>925</ele>
        <time>2019-12-28T20:37:54Z</time>
      </trkpt>
      <trkpt lat="47.77378" lon="6.90471">
        <ele>922</ele>
        <time>2019-12-28T20:38:07Z</time>
      </trkpt>
      <trkpt lat="47.77347" lon="6.90455">
        <ele>921</ele>
        <time>2019-12-28T20:38:33Z</time>
      </trkpt>
      <trkpt lat="47.77296" lon="6.90451">
        <ele>916</ele>
        <time>2019-12-28T20:39:14Z</time>
      </trkpt>
      <trkpt lat="47.77273" lon="6.90458">
        <ele>913</ele>
        <time>2019-12-28T20:39:33Z</time>
      </trkpt>
      <trkpt lat="47.77247" lon="6.90474">
        <ele>908</ele>
        <time>2019-12-28T20:39:55Z</time>
      </trkpt>
      <trkpt lat="47.77207" lon="6.90499">
        <ele>900</ele>
        <time>2019-12-28T20:40:32Z</time>
      </trkpt>
      <trkpt lat="47.77187" lon="6.90512">
        <ele>895</ele>
        <time>2019-12-28T20:40:47Z</time>
      </trkpt>
      <trkpt lat="47.77177" lon="6.90516">
        <ele>894</ele>
        <time>2019-12-28T20:40:53Z</time>
      </trkpt>
      <trkpt lat="47.77158" lon="6.90527">
        <ele>891</ele>
        <time>2019-12-28T20:41:11Z</time>
      </trkpt>
      <trkpt lat="47.77121" lon="6.90549">
        <ele>886</ele>
        <time>2019-12-28T20:41:45Z</time>
      </trkpt>
      <trkpt lat="47.77091" lon="6.90569">
        <ele>882</ele>
        <time>2019-12-28T20:42:15Z</time>
      </trkpt>
      <trkpt lat="47.77077" lon="6.9058">
        <ele>881</ele>
        <time>2019-12-28T20:42:28Z</time>
      </trkpt>
      <trkpt lat="47.77063" lon="6.90586">
        <ele>880</ele>
        <time>2019-12-28T20:42:39Z</time>
      </trkpt>
      <trkpt lat="47.77026" lon="6.90599">
        <ele>876</ele>
        <time>2019-12-28T20:43:10Z</time>
      </trkpt>
      <trkpt lat="47.76969" lon="6.90587">
        <ele>873</ele>
        <time>2019-12-28T20:43:56Z</time>
      </trkpt>
      <trkpt lat="47.76927" lon="6.90553">
        <ele>871</ele>
        <time>2019-12-28T20:44:34Z</time>
      </trkpt>
      <trkpt lat="47.76912" lon="6.90532">
        <ele>871</ele>
        <time>2019-12-28T20:44:51Z</time>
      </trkpt>
      <trkpt lat="47.76897" lon="6.90521">
        <ele>869</ele>
        <time>2019-12-28T20:45:04Z</time>
      </trkpt>
      <trkpt lat="47.7689" lon="6.90508">
        <ele>869</ele>
        <time>2019-12-28T20:45:13Z</time>
      </trkpt>
      <trkpt lat="47.76891" lon="6.90494">
        <ele>870</ele>
        <time>2019-12-28T20:45:21Z</time>
      </trkpt>
      <trkpt lat="47.76878" lon="6.90448">
        <ele>859</ele>
        <time>2019-12-28T20:45:47Z</time>
      </trkpt>
      <trkpt lat="47.76858" lon="6.90408">
        <ele>850</ele>
        <time>2019-12-28T20:46:14Z</time>
      </trkpt>
      <trkpt lat="47.76851" lon="6.90376">
        <ele>841</ele>
        <time>2019-12-28T20:46:32Z</time>
      </trkpt>
      <trkpt lat="47.76834" lon="6.90343">
        <ele>834</ele>
        <time>2019-12-28T20:46:55Z</time>
      </trkpt>
      <trkpt lat="47.76827" lon="6.9032">
        <ele>830</ele>
        <time>2019-12-28T20:47:08Z</time>
      </trkpt>
      <trkpt lat="47.76812" lon="6.90301">
        <ele>827</ele>
        <time>2019-12-28T20:47:24Z</time>
      </trkpt>
      <trkpt lat="47.76789" lon="6.90286">
        <ele>825</ele>
        <time>2019-12-28T20:47:44Z</time>
      </trkpt>
      <trkpt lat="47.76779" lon="6.90274">
        <ele>821</ele>
        <time>2019-12-28T20:47:54Z</time>
      </trkpt>
      <trkpt lat="47.7676" lon="6.90266">
        <ele>820</ele>
        <time>2019-12-28T20:48:10Z</time>
      </trkpt>
      <trkpt lat="47.76728" lon="6.90247">
        <ele>814</ele>
        <time>2019-12-28T20:48:38Z</time>
      </trkpt>
      <trkpt lat="47.76713" lon="6.90243">
        <ele>813</ele>
        <time>2019-12-28T20:48:50Z</time>
      </trkpt>
      <trkpt lat="47.76696" lon="6.90244">
        <ele>811</ele>
        <time>2019-12-28T20:49:04Z</time>
      </trkpt>
      <trkpt lat="47.76678" lon="6.90251">
        <ele>811</ele>
        <time>2019-12-28T20:49:21Z</time>
      </trkpt>
      <trkpt lat="47.7666" lon="6.90256">
        <ele>810</ele>
        <time>2019-12-28T20:49:36Z</time>
      </trkpt>
      <trkpt lat="47.76648" lon="6.90247">
        <ele>810</ele>
        <time>2019-12-28T20:49:47Z</time>
      </trkpt>
      <trkpt lat="47.76636" lon="6.90244">
        <ele>811</ele>
        <time>2019-12-28T20:49:56Z</time>
      </trkpt>
      <trkpt lat="47.76627" lon="6.90237">
        <ele>811</ele>
        <time>2019-12-28T20:50:04Z</time>
      </trkpt>
      <trkpt lat="47.76619" lon="6.90224">
        <ele>810</ele>
        <time>2019-12-28T20:50:14Z</time>
      </trkpt>
      <trkpt lat="47.76604" lon="6.90215">
        <ele>810</ele>
        <time>2019-12-28T20:50:27Z</time>
      </trkpt>
      <trkpt lat="47.76599" lon="6.90208">
        <ele>810</ele>
        <time>2019-12-28T20:50:32Z</time>
      </trkpt>
      <trkpt lat="47.76595" lon="6.90138">
        <ele>794</ele>
        <time>2019-12-28T20:51:10Z</time>
      </trkpt>
      <trkpt lat="47.7659" lon="6.90123">
        <ele>792</ele>
        <time>2019-12-28T20:51:19Z</time>
      </trkpt>
      <trkpt lat="47.76594" lon="6.90094">
        <ele>784</ele>
        <time>2019-12-28T20:51:35Z</time>
      </trkpt>
      <trkpt lat="47.76591" lon="6.90072">
        <ele>780</ele>
        <time>2019-12-28T20:51:47Z</time>
      </trkpt>
      <trkpt lat="47.76595" lon="6.90058">
        <ele>776</ele>
        <time>2019-12-28T20:51:55Z</time>
      </trkpt>
      <trkpt lat="47.76596" lon="6.9004">
        <ele>772</ele>
        <time>2019-12-28T20:52:05Z</time>
      </trkpt>
      <trkpt lat="47.7659" lon="6.89992">
        <ele>764</ele>
        <time>2019-12-28T20:52:31Z</time>
      </trkpt>
      <trkpt lat="47.76586" lon="6.89979">
        <ele>764</ele>
        <time>2019-12-28T20:52:39Z</time>
      </trkpt>
      <trkpt lat="47.7659" lon="6.89966">
        <ele>760</ele>
        <time>2019-12-28T20:52:47Z</time>
      </trkpt>
      <trkpt lat="47.76586" lon="6.89912">
        <ele>753</ele>
        <time>2019-12-28T20:53:16Z</time>
      </trkpt>
      <trkpt lat="47.76574" lon="6.89853">
        <ele>747</ele>
        <time>2019-12-28T20:53:49Z</time>
      </trkpt>
      <trkpt lat="47.76551" lon="6.89816">
        <ele>745</ele>
        <time>2019-12-28T20:54:16Z</time>
      </trkpt>
      <trkpt lat="47.76525" lon="6.89793">
        <ele>742</ele>
        <time>2019-12-28T20:54:41Z</time>
      </trkpt>
      <trkpt lat="47.76499" lon="6.89789">
        <ele>739</ele>
        <time>2019-12-28T20:54:54Z</time>
      </trkpt>
      <trkpt lat="47.76507" lon="6.89754">
        <ele>736</ele>
        <time>2019-12-28T20:55:23Z</time>
      </trkpt>
      <trkpt lat="47.7652" lon="6.8974">
        <ele>735</ele>
        <time>2019-12-28T20:55:35Z</time>
      </trkpt>
      <trkpt lat="47.76531" lon="6.89739">
        <ele>736</ele>
        <time>2019-12-28T20:55:44Z</time>
      </trkpt>
      <trkpt lat="47.76561" lon="6.89755">
        <ele>739</ele>
        <time>2019-12-28T20:56:10Z</time>
      </trkpt>
      <trkpt lat="47.76581" lon="6.89775">
        <ele>739</ele>
        <time>2019-12-28T20:56:29Z</time>
      </trkpt>
      <trkpt lat="47.7659" lon="6.8979">
        <ele>741</ele>
        <time>2019-12-28T20:56:40Z</time>
      </trkpt>
      <trkpt lat="47.76595" lon="6.89805">
        <ele>740</ele>
        <time>2019-12-28T20:56:49Z</time>
      </trkpt>
      <trkpt lat="47.76604" lon="6.89816">
        <ele>736</ele>
        <time>2019-12-28T20:56:58Z</time>
      </trkpt>
      <trkpt lat="47.76618" lon="6.89883">
        <ele>735</ele>
        <time>2019-12-28T20:57:36Z</time>
      </trkpt>
      <trkpt lat="47.76625" lon="6.89902">
        <ele>734</ele>
        <time>2019-12-28T20:57:48Z</time>
      </trkpt>
      <trkpt lat="47.76633" lon="6.89929">
        <ele>735</ele>
        <time>2019-12-28T20:58:04Z</time>
      </trkpt>
      <trkpt lat="47.76645" lon="6.89961">
        <ele>739</ele>
        <time>2019-12-28T20:58:30Z</time>
      </trkpt>
      <trkpt lat="47.76658" lon="6.8997">
        <ele>738</ele>
        <time>2019-12-28T20:58:41Z</time>
      </trkpt>
      <trkpt lat="47.76672" lon="6.89958">
        <ele>731</ele>
        <time>2019-12-28T20:58:59Z</time>
      </trkpt>
      <trkpt lat="47.7668" lon="6.89946">
        <ele>727</ele>
        <time>2019-12-28T20:59:06Z</time>
      </trkpt>
      <trkpt lat="47.76688" lon="6.89954">
        <ele>728</ele>
        <time>2019-12-28T20:59:12Z</time>
      </trkpt>
      <trkpt lat="47.76708" lon="6.89978">
        <ele>732</ele>
        <time>2019-12-28T20:59:32Z</time>
      </trkpt>
      <trkpt lat="47.76728" lon="6.90033">
        <ele>743</ele>
        <time>2019-12-28T21:00:12Z</time>
      </trkpt>
      <trkpt lat="47.76741" lon="6.90034">
        <ele>742</ele>
        <time>2019-12-28T21:00:22Z</time>
      </trkpt>
      <trkpt lat="47.76762" lon="6.90045">
        <ele>744</ele>
        <time>2019-12-28T21:00:40Z</time>
      </trkpt>
      <trkpt lat="47.76774" lon="6.9005">
        <ele>746</ele>
        <time>2019-12-28T21:00:53Z</time>
      </trkpt>
      <trkpt lat="47.76788" lon="6.9005">
        <ele>746</ele>
        <time>2019-12-28T21:01:04Z</time>
      </trkpt>
      <trkpt lat="47.76801" lon="6.90056">
        <ele>748</ele>
        <time>2019-12-28T21:01:15Z</time>
      </trkpt>
      <trkpt lat="47.76829" lon="6.90061">
        <ele>748</ele>
        <time>2019-12-28T21:01:38Z</time>
      </trkpt>
      <trkpt lat="47.76867" lon="6.90077">
        <ele>755</ele>
        <time>2019-12-28T21:02:09Z</time>
      </trkpt>
      <trkpt lat="47.76878" lon="6.90051">
        <ele>754</ele>
        <time>2019-12-28T21:02:26Z</time>
      </trkpt>
      <trkpt lat="47.76879" lon="6.90005">
        <ele>750</ele>
        <time>2019-12-28T21:02:50Z</time>
      </trkpt>
      <trkpt lat="47.76876" lon="6.89978">
        <ele>748</ele>
        <time>2019-12-28T21:03:05Z</time>
      </trkpt>
      <trkpt lat="47.76879" lon="6.89965">
        <ele>749</ele>
        <time>2019-12-28T21:03:15Z</time>
      </trkpt>
      <trkpt lat="47.76878" lon="6.8996">
        <ele>748</ele>
        <time>2019-12-28T21:03:17Z</time>
      </trkpt>
      <trkpt lat="47.76877" lon="6.89953">
        <ele>747</ele>
        <time>2019-12-28T21:03:21Z</time>
      </trkpt>
      <trkpt lat="47.76884" lon="6.89946">
        <ele>749</ele>
        <time>2019-12-28T21:03:24Z</time>
      </trkpt>
      <trkpt lat="47.76894" lon="6.89937">
        <ele>751</ele>
        <time>2019-12-28T21:03:37Z</time>
      </trkpt>
      <trkpt lat="47.76897" lon="6.8992">
        <ele>749</ele>
        <time>2019-12-28T21:03:47Z</time>
      </trkpt>
      <trkpt lat="47.76896" lon="6.89908">
        <ele>746</ele>
        <time>2019-12-28T21:03:53Z</time>
      </trkpt>
      <trkpt lat="47.76896" lon="6.8988">
        <ele>742</ele>
        <time>2019-12-28T21:04:06Z</time>
      </trkpt>
      <trkpt lat="47.76851" lon="6.89804">
        <ele>730</ele>
        <time>2019-12-28T21:05:01Z</time>
      </trkpt>
      <trkpt lat="47.76839" lon="6.89749">
        <ele>724</ele>
        <time>2019-12-28T21:05:32Z</time>
      </trkpt>
      <trkpt lat="47.76828" lon="6.89718">
        <ele>720</ele>
        <time>2019-12-28T21:05:51Z</time>
      </trkpt>
      <trkpt lat="47.76814" lon="6.89638">
        <ele>710</ele>
        <time>2019-12-28T21:06:35Z</time>
      </trkpt>
      <trkpt lat="47.76764" lon="6.8957">
        <ele>705</ele>
        <time>2019-12-28T21:07:29Z</time>
      </trkpt>
      <trkpt lat="47.76757" lon="6.89547">
        <ele>704</ele>
        <time>2019-12-28T21:07:43Z</time>
      </trkpt>
      <trkpt lat="47.76741" lon="6.89531">
        <ele>701</ele>
        <time>2019-12-28T21:07:58Z</time>
      </trkpt>
      <trkpt lat="47.76726" lon="6.89467">
        <ele>693</ele>
        <time>2019-12-28T21:08:35Z</time>
      </trkpt>
      <trkpt lat="47.76713" lon="6.89434">
        <ele>685</ele>
        <time>2019-12-28T21:08:55Z</time>
      </trkpt>
      <trkpt lat="47.76682" lon="6.89404">
        <ele>678</ele>
        <time>2019-12-28T21:09:25Z</time>
      </trkpt>
      <trkpt lat="47.76677" lon="6.89389">
        <ele>676</ele>
        <time>2019-12-28T21:09:34Z</time>
      </trkpt>
      <trkpt lat="47.76678" lon="6.89361">
        <ele>672</ele>
        <time>2019-12-28T21:09:49Z</time>
      </trkpt>
      <trkpt lat="47.76687" lon="6.8936">
        <ele>672</ele>
        <time>2019-12-28T21:09:56Z</time>
      </trkpt>
      <trkpt lat="47.76703" lon="6.89372">
        <ele>674</ele>
        <time>2019-12-28T21:10:11Z</time>
      </trkpt>
      <trkpt lat="47.76739" lon="6.89384">
        <ele>672</ele>
        <time>2019-12-28T21:10:40Z</time>
      </trkpt>
      <trkpt lat="47.76757" lon="6.89395">
        <ele>673</ele>
        <time>2019-12-28T21:10:56Z</time>
      </trkpt>
      <trkpt lat="47.76774" lon="6.894">
        <ele>672</ele>
        <time>2019-12-28T21:11:10Z</time>
      </trkpt>
      <trkpt lat="47.76801" lon="6.89407">
        <ele>674</ele>
        <time>2019-12-28T21:11:31Z</time>
      </trkpt>
      <trkpt lat="47.76814" lon="6.89407">
        <ele>675</ele>
        <time>2019-12-28T21:11:42Z</time>
      </trkpt>
      <trkpt lat="47.7682" lon="6.89404">
        <ele>675</ele>
        <time>2019-12-28T21:11:49Z</time>
      </trkpt>
      <trkpt lat="47.76826" lon="6.89389">
        <ele>675</ele>
        <time>2019-12-28T21:11:58Z</time>
      </trkpt>
    </trkseg>
  </trk>
</gpx>